Westby, MT (59275)

2:12 PM MST on December 28, 2014 (GMT -0700)
Crosby | Change Station
CLOSE
Current Station
Airport
Location: Crosby,
Elevation: 1949 ft
Nearby Weather Stations

Elev 1949 ft 48.93 °N, 103.30 °W | Updated 17 minutes ago

Overcast
Overcast
1 °F
Feels Like -14 °F
N
9
Wind Variable Wind from NNE

Today
High -- | Low -- °F
--% Chance of Precip.
Yesterday
High -- | Low -- °F
Precip. -- in
7:49 AM 4:07 PM
Waxing Crescent, 51% visible
Pressure 30.28 in
Visibility 10.0 miles
Clouds Mostly Cloudy 8500 ft
Windchill -14 °F
Dew Point -2 °F
Humidity 85%
Rainfall 0.03 in
Snow Depth Not available.
UV 0 out of 12
Pollen .10 out of 12
Air Quality Not available.
Flu Activity Not available.
METAR KD50 282055Z AUTO 02008KT 10SM BKN085 M17/M19 A3028 RMK AO2

More Conditions Fewer Conditions

Pressure 30.28 in
Visibility 10.0 miles
Clouds Mostly Cloudy 8500 ft
Windchill -14 °F
Dew Point -2 °F
Humidity 85%
Rainfall 0.03 in
Snow Depth Not available.
UV 0 out of 12
Pollen .10 out of 12
Air Quality Not available.
Flu Activity Not available.
METAR KD50 282055Z AUTO 02008KT 10SM BKN085 M17/M19 A3028 RMK AO2

More Conditions Fewer Conditions

10-Day Weather Forecast

Almanac

Astronomy

Dec. 28, 2014 Rise Set
Actual Time
Civil Twilight
Nautical Twilight
Astronomical Twilight
Moon
Length of Visible Light
Length of Day
Tomorrow will be .
, % of the Moon is Illuminated

Today's Extremes

State Highs State Lows

Community

WunderPhotos

Upload Photos

1,781,429 photos uploaded!

WunderBlogs® & News

Nearby

Air Quality

  Air Quality AQ Index Pollutant
Not available.

Snow Depth

Station Depth Elevation

Earthquake Activity

City Distance Mag. Time & Date
Minimum magnitude displayed is 2.5.

Coastal Water Temperatures

Place Temperature

Nearby Weather Stations